sensor_id;sensor_type;location;lat;lon;timestamp;P1;durP1;ratioP1;P2;durP2;ratioP2
3343;SDS011;1685;53.104;8.228;2022-09-29T00:00:50;26.03;;;15.33;;
3343;SDS011;1685;53.104;8.228;2022-09-29T00:03:17;17.03;;;12.60;;
3343;SDS011;1685;53.104;8.228;2022-09-29T00:05:45;16.63;;;12.40;;
3343;SDS011;1685;53.104;8.228;2022-09-29T00:08:14;19.37;;;12.17;;
3343;SDS011;1685;53.104;8.228;2022-09-29T00:10:42;20.50;;;14.13;;
3343;SDS011;1685;53.104;8.228;2022-09-29T00:13:09;19.43;;;12.50;;
3343;SDS011;1685;53.104;8.228;2022-09-29T00:15:37;26.97;;;12.97;;
3343;SDS011;1685;53.104;8.228;2022-09-29T00:18:04;15.97;;;12.20;;
3343;SDS011;1685;53.104;8.228;2022-09-29T00:20:32;19.10;;;12.63;;
3343;SDS011;1685;53.104;8.228;2022-09-29T00:23:00;21.10;;;13.03;;
3343;SDS011;1685;53.104;8.228;2022-09-29T00:25:27;29.30;;;12.23;;
3343;SDS011;1685;53.104;8.228;2022-09-29T00:27:54;14.00;;;11.03;;
3343;SDS011;1685;53.104;8.228;2022-09-29T00:30:20;21.90;;;13.40;;
3343;SDS011;1685;53.104;8.228;2022-09-29T00:32:48;17.27;;;13.07;;
3343;SDS011;1685;53.104;8.228;2022-09-29T00:35:15;17.80;;;12.80;;
3343;SDS011;1685;53.104;8.228;2022-09-29T00:37:42;18.17;;;11.93;;
3343;SDS011;1685;53.104;8.228;2022-09-29T00:40:09;16.30;;;11.90;;
3343;SDS011;1685;53.104;8.228;2022-09-29T00:42:36;15.30;;;11.90;;
3343;SDS011;1685;53.104;8.228;2022-09-29T00:45:10;20.50;;;14.50;;
3343;SDS011;1685;53.104;8.228;2022-09-29T00:47:40;17.20;;;12.00;;
3343;SDS011;1685;53.104;8.228;2022-09-29T00:50:12;23.33;;;12.13;;
3343;SDS011;1685;53.104;8.228;2022-09-29T00:52:43;17.40;;;12.30;;
3343;SDS011;1685;53.104;8.228;2022-09-29T00:55:14;18.40;;;12.40;;
3343;SDS011;1685;53.104;8.228;2022-09-29T00:57:44;19.50;;;12.20;;
3343;SDS011;1685;53.104;8.228;2022-09-29T01:00:14;13.43;;;10.83;;
3343;SDS011;1685;53.104;8.228;2022-09-29T01:02:43;15.73;;;12.60;;
3343;SDS011;1685;53.104;8.228;2022-09-29T01:05:14;17.60;;;12.20;;
3343;SDS011;1685;53.104;8.228;2022-09-29T01:07:45;22.80;;;12.73;;
3343;SDS011;1685;53.104;8.228;2022-09-29T01:10:12;15.23;;;11.30;;
3343;SDS011;1685;53.104;8.228;2022-09-29T01:12:41;18.17;;;12.37;;
3343;SDS011;1685;53.104;8.228;2022-09-29T01:15:10;19.00;;;12.40;;
3343;SDS011;1685;53.104;8.228;2022-09-29T01:17:39;16.47;;;12.30;;
3343;SDS011;1685;53.104;8.228;2022-09-29T01:20:08;17.40;;;12.27;;
3343;SDS011;1685;53.104;8.228;2022-09-29T01:25:40;15.43;;;12.27;;
3343;SDS011;1685;53.104;8.228;2022-09-29T01:28:37;17.67;;;12.33;;
3343;SDS011;1685;53.104;8.228;2022-09-29T01:31:16;16.57;;;12.23;;
3343;SDS011;1685;53.104;8.228;2022-09-29T01:33:49;19.97;;;12.73;;
3343;SDS011;1685;53.104;8.228;2022-09-29T01:36:25;16.70;;;11.87;;
3343;SDS011;1685;53.104;8.228;2022-09-29T01:39:02;16.70;;;11.60;;
3343;SDS011;1685;53.104;8.228;2022-09-29T01:41:40;16.40;;;11.40;;
3343;SDS011;1685;53.104;8.228;2022-09-29T01:44:13;17.87;;;12.80;;
3343;SDS011;1685;53.104;8.228;2022-09-29T01:46:49;23.80;;;12.80;;
3343;SDS011;1685;53.104;8.228;2022-09-29T01:49:20;17.37;;;12.00;;
3343;SDS011;1685;53.104;8.228;2022-09-29T01:51:53;15.57;;;11.30;;
3343;SDS011;1685;53.104;8.228;2022-09-29T01:54:24;14.67;;;10.03;;
3343;SDS011;1685;53.104;8.228;2022-09-29T01:56:55;17.90;;;12.33;;
3343;SDS011;1685;53.104;8.228;2022-09-29T01:59:27;17.13;;;13.23;;
3343;SDS011;1685;53.104;8.228;2022-09-29T02:02:02;15.77;;;11.23;;
3343;SDS011;1685;53.104;8.228;2022-09-29T02:04:35;16.43;;;10.53;;
3343;SDS011;1685;53.104;8.228;2022-09-29T02:07:07;18.67;;;11.87;;
3343;SDS011;1685;53.104;8.228;2022-09-29T02:09:43;16.03;;;12.47;;
3343;SDS011;1685;53.104;8.228;2022-09-29T02:12:15;16.90;;;12.47;;
3343;SDS011;1685;53.104;8.228;2022-09-29T02:14:47;16.20;;;11.87;;
3343;SDS011;1685;53.104;8.228;2022-09-29T02:17:17;17.40;;;11.57;;
3343;SDS011;1685;53.104;8.228;2022-09-29T02:19:46;13.77;;;11.80;;
3343;SDS011;1685;53.104;8.228;2022-09-29T02:22:15;19.13;;;13.10;;
3343;SDS011;1685;53.104;8.228;2022-09-29T02:24:43;15.23;;;11.03;;
3343;SDS011;1685;53.104;8.228;2022-09-29T02:27:10;19.60;;;10.80;;
3343;SDS011;1685;53.104;8.228;2022-09-29T02:29:37;18.30;;;11.97;;
3343;SDS011;1685;53.104;8.228;2022-09-29T02:32:04;22.13;;;11.33;;
3343;SDS011;1685;53.104;8.228;2022-09-29T02:34:36;16.60;;;11.80;;
3343;SDS011;1685;53.104;8.228;2022-09-29T02:37:08;20.33;;;11.03;;
3343;SDS011;1685;53.104;8.228;2022-09-29T02:39:44;18.83;;;12.53;;
3343;SDS011;1685;53.104;8.228;2022-09-29T02:42:19;16.77;;;11.00;;
3343;SDS011;1685;53.104;8.228;2022-09-29T02:44:55;16.93;;;12.33;;
3343;SDS011;1685;53.104;8.228;2022-09-29T02:47:42;15.90;;;12.13;;
3343;SDS011;1685;53.104;8.228;2022-09-29T02:50:28;14.30;;;10.40;;
3343;SDS011;1685;53.104;8.228;2022-09-29T02:53:03;15.00;;;10.97;;
3343;SDS011;1685;53.104;8.228;2022-09-29T02:55:40;18.40;;;10.60;;
3343;SDS011;1685;53.104;8.228;2022-09-29T02:58:14;14.73;;;11.10;;
3343;SDS011;1685;53.104;8.228;2022-09-29T03:00:45;14.20;;;10.53;;
3343;SDS011;1685;53.104;8.228;2022-09-29T03:03:12;14.53;;;11.20;;
3343;SDS011;1685;53.104;8.228;2022-09-29T03:05:40;14.73;;;11.30;;
3343;SDS011;1685;53.104;8.228;2022-09-29T03:08:07;15.20;;;10.87;;
3343;SDS011;1685;53.104;8.228;2022-09-29T03:10:34;18.37;;;11.30;;
3343;SDS011;1685;53.104;8.228;2022-09-29T03:13:00;14.83;;;10.53;;
3343;SDS011;1685;53.104;8.228;2022-09-29T03:15:27;15.77;;;10.83;;
3343;SDS011;1685;53.104;8.228;2022-09-29T03:17:54;13.83;;;11.20;;
3343;SDS011;1685;53.104;8.228;2022-09-29T03:20:22;17.60;;;11.53;;
3343;SDS011;1685;53.104;8.228;2022-09-29T03:22:51;16.67;;;11.33;;
3343;SDS011;1685;53.104;8.228;2022-09-29T03:25:21;13.47;;;11.60;;
3343;SDS011;1685;53.104;8.228;2022-09-29T03:27:48;13.17;;;10.70;;
3343;SDS011;1685;53.104;8.228;2022-09-29T03:30:15;13.03;;;10.27;;
3343;SDS011;1685;53.104;8.228;2022-09-29T03:32:42;15.23;;;10.20;;
3343;SDS011;1685;53.104;8.228;2022-09-29T03:35:09;13.40;;;10.33;;
3343;SDS011;1685;53.104;8.228;2022-09-29T03:37:37;11.50;;;10.00;;
3343;SDS011;1685;53.104;8.228;2022-09-29T03:40:05;13.17;;;10.27;;
3343;SDS011;1685;53.104;8.228;2022-09-29T03:42:33;12.90;;;10.00;;
3343;SDS011;1685;53.104;8.228;2022-09-29T03:45:00;13.57;;;10.20;;
3343;SDS011;1685;53.104;8.228;2022-09-29T03:47:26;11.80;;;9.53;;
3343;SDS011;1685;53.104;8.228;2022-09-29T03:49:53;12.00;;;10.63;;
3343;SDS011;1685;53.104;8.228;2022-09-29T03:52:20;12.97;;;10.83;;
3343;SDS011;1685;53.104;8.228;2022-09-29T03:54:47;10.60;;;9.50;;
3343;SDS011;1685;53.104;8.228;2022-09-29T03:57:15;12.07;;;9.43;;
3343;SDS011;1685;53.104;8.228;2022-09-29T03:59:41;14.47;;;10.33;;
3343;SDS011;1685;53.104;8.228;2022-09-29T04:02:08;12.17;;;9.73;;
3343;SDS011;1685;53.104;8.228;2022-09-29T04:04:35;11.13;;;9.40;;
3343;SDS011;1685;53.104;8.228;2022-09-29T04:07:01;15.23;;;10.40;;
3343;SDS011;1685;53.104;8.228;2022-09-29T04:09:28;15.17;;;9.93;;
3343;SDS011;1685;53.104;8.228;2022-09-29T04:11:55;13.73;;;10.57;;
3343;SDS011;1685;53.104;8.228;2022-09-29T04:14:23;16.80;;;10.37;;
3343;SDS011;1685;53.104;8.228;2022-09-29T04:16:50;12.30;;;10.17;;
3343;SDS011;1685;53.104;8.228;2022-09-29T04:19:16;12.70;;;10.07;;
3343;SDS011;1685;53.104;8.228;2022-09-29T04:21:43;18.93;;;10.53;;
3343;SDS011;1685;53.104;8.228;2022-09-29T04:24:10;14.10;;;10.10;;
3343;SDS011;1685;53.104;8.228;2022-09-29T04:26:37;15.80;;;10.57;;
3343;SDS011;1685;53.104;8.228;2022-09-29T04:29:04;15.30;;;10.80;;
3343;SDS011;1685;53.104;8.228;2022-09-29T04:31:33;15.30;;;11.27;;
3343;SDS011;1685;53.104;8.228;2022-09-29T04:33:59;17.00;;;10.50;;
3343;SDS011;1685;53.104;8.228;2022-09-29T04:36:26;15.83;;;11.17;;
3343;SDS011;1685;53.104;8.228;2022-09-29T04:38:53;17.10;;;11.60;;
3343;SDS011;1685;53.104;8.228;2022-09-29T04:41:20;12.10;;;9.93;;
3343;SDS011;1685;53.104;8.228;2022-09-29T04:43:46;15.40;;;10.33;;
3343;SDS011;1685;53.104;8.228;2022-09-29T04:46:13;15.17;;;11.00;;
3343;SDS011;1685;53.104;8.228;2022-09-29T04:48:41;14.20;;;10.50;;
3343;SDS011;1685;53.104;8.228;2022-09-29T04:51:08;13.43;;;10.50;;
3343;SDS011;1685;53.104;8.228;2022-09-29T04:53:35;14.57;;;10.50;;
3343;SDS011;1685;53.104;8.228;2022-09-29T04:56:05;12.47;;;10.47;;
3343;SDS011;1685;53.104;8.228;2022-09-29T04:58:33;15.37;;;10.83;;
3343;SDS011;1685;53.104;8.228;2022-09-29T05:01:04;14.37;;;11.10;;
3343;SDS011;1685;53.104;8.228;2022-09-29T05:03:31;17.23;;;10.73;;
3343;SDS011;1685;53.104;8.228;2022-09-29T05:05:59;15.37;;;11.43;;
3343;SDS011;1685;53.104;8.228;2022-09-29T05:08:26;11.90;;;10.60;;
3343;SDS011;1685;53.104;8.228;2022-09-29T05:10:53;13.30;;;10.77;;
3343;SDS011;1685;53.104;8.228;2022-09-29T05:13:20;13.33;;;10.43;;
3343;SDS011;1685;53.104;8.228;2022-09-29T05:15:46;14.13;;;10.77;;
3343;SDS011;1685;53.104;8.228;2022-09-29T05:18:13;15.83;;;10.73;;
3343;SDS011;1685;53.104;8.228;2022-09-29T05:20:40;13.97;;;10.67;;
3343;SDS011;1685;53.104;8.228;2022-09-29T05:23:08;12.40;;;11.00;;
3343;SDS011;1685;53.104;8.228;2022-09-29T05:25:35;14.17;;;11.40;;
3343;SDS011;1685;53.104;8.228;2022-09-29T05:28:02;13.60;;;9.97;;
3343;SDS011;1685;53.104;8.228;2022-09-29T05:30:29;17.10;;;12.47;;
3343;SDS011;1685;53.104;8.228;2022-09-29T05:32:56;17.47;;;11.67;;
3343;SDS011;1685;53.104;8.228;2022-09-29T05:35:22;12.30;;;11.03;;
3343;SDS011;1685;53.104;8.228;2022-09-29T05:37:49;22.40;;;13.33;;
3343;SDS011;1685;53.104;8.228;2022-09-29T05:40:17;14.00;;;12.47;;
3343;SDS011;1685;53.104;8.228;2022-09-29T05:42:47;40.13;;;11.73;;
3343;SDS011;1685;53.104;8.228;2022-09-29T05:45:14;17.90;;;12.97;;
3343;SDS011;1685;53.104;8.228;2022-09-29T05:47:41;16.00;;;12.40;;
3343;SDS011;1685;53.104;8.228;2022-09-29T05:50:09;13.70;;;11.53;;
3343;SDS011;1685;53.104;8.228;2022-09-29T05:52:36;16.30;;;13.17;;
3343;SDS011;1685;53.104;8.228;2022-09-29T05:55:03;16.93;;;12.83;;
3343;SDS011;1685;53.104;8.228;2022-09-29T05:57:35;16.00;;;12.77;;
3343;SDS011;1685;53.104;8.228;2022-09-29T06:00:02;15.87;;;13.20;;
3343;SDS011;1685;53.104;8.228;2022-09-29T06:02:30;25.60;;;15.20;;
3343;SDS011;1685;53.104;8.228;2022-09-29T06:04:58;22.93;;;15.70;;
3343;SDS011;1685;53.104;8.228;2022-09-29T06:07:24;19.67;;;15.80;;
3343;SDS011;1685;53.104;8.228;2022-09-29T06:09:51;20.73;;;15.80;;
3343;SDS011;1685;53.104;8.228;2022-09-29T06:12:18;22.40;;;16.90;;
3343;SDS011;1685;53.104;8.228;2022-09-29T06:14:47;20.80;;;16.27;;
3343;SDS011;1685;53.104;8.228;2022-09-29T06:17:14;26.07;;;18.10;;
3343;SDS011;1685;53.104;8.228;2022-09-29T06:19:40;29.17;;;18.10;;
3343;SDS011;1685;53.104;8.228;2022-09-29T06:22:07;26.83;;;16.70;;
3343;SDS011;1685;53.104;8.228;2022-09-29T06:24:34;27.00;;;17.53;;
3343;SDS011;1685;53.104;8.228;2022-09-29T06:27:00;24.37;;;17.90;;
3343;SDS011;1685;53.104;8.228;2022-09-29T06:29:28;27.50;;;17.23;;
3343;SDS011;1685;53.104;8.228;2022-09-29T06:31:56;25.57;;;18.07;;
3343;SDS011;1685;53.104;8.228;2022-09-29T06:34:23;30.00;;;20.60;;
3343;SDS011;1685;53.104;8.228;2022-09-29T06:36:49;31.63;;;21.13;;
3343;SDS011;1685;53.104;8.228;2022-09-29T06:39:34;28.27;;;20.00;;
3343;SDS011;1685;53.104;8.228;2022-09-29T06:42:02;32.30;;;21.50;;
3343;SDS011;1685;53.104;8.228;2022-09-29T06:44:29;26.83;;;17.67;;
3343;SDS011;1685;53.104;8.228;2022-09-29T06:46:57;28.60;;;20.43;;
3343;SDS011;1685;53.104;8.228;2022-09-29T06:49:24;35.10;;;20.73;;
3343;SDS011;1685;53.104;8.228;2022-09-29T06:51:51;29.80;;;20.07;;
3343;SDS011;1685;53.104;8.228;2022-09-29T06:54:18;32.27;;;20.90;;
3343;SDS011;1685;53.104;8.228;2022-09-29T06:56:49;31.93;;;21.30;;
3343;SDS011;1685;53.104;8.228;2022-09-29T06:59:17;31.07;;;21.83;;
3343;SDS011;1685;53.104;8.228;2022-09-29T07:01:44;36.20;;;23.13;;
3343;SDS011;1685;53.104;8.228;2022-09-29T07:04:15;36.30;;;22.83;;
3343;SDS011;1685;53.104;8.228;2022-09-29T07:06:42;35.17;;;21.60;;
3343;SDS011;1685;53.104;8.228;2022-09-29T07:09:09;35.73;;;23.03;;
3343;SDS011;1685;53.104;8.228;2022-09-29T07:11:39;36.83;;;23.30;;
3343;SDS011;1685;53.104;8.228;2022-09-29T07:14:07;37.33;;;23.50;;
3343;SDS011;1685;53.104;8.228;2022-09-29T07:16:34;35.73;;;24.20;;
3343;SDS011;1685;53.104;8.228;2022-09-29T07:19:01;37.63;;;23.93;;
3343;SDS011;1685;53.104;8.228;2022-09-29T07:21:29;37.13;;;24.67;;
3343;SDS011;1685;53.104;8.228;2022-09-29T07:23:55;40.87;;;26.10;;
3343;SDS011;1685;53.104;8.228;2022-09-29T07:26:22;45.97;;;27.43;;
3343;SDS011;1685;53.104;8.228;2022-09-29T07:28:49;43.43;;;26.17;;
3343;SDS011;1685;53.104;8.228;2022-09-29T07:31:16;45.60;;;26.70;;
3343;SDS011;1685;53.104;8.228;2022-09-29T07:33:45;46.60;;;27.30;;
3343;SDS011;1685;53.104;8.228;2022-09-29T07:36:14;56.13;;;26.97;;
3343;SDS011;1685;53.104;8.228;2022-09-29T07:38:45;53.20;;;27.83;;
3343;SDS011;1685;53.104;8.228;2022-09-29T07:41:13;46.40;;;26.17;;
3343;SDS011;1685;53.104;8.228;2022-09-29T07:43:40;60.07;;;27.20;;
3343;SDS011;1685;53.104;8.228;2022-09-29T07:46:07;44.17;;;27.00;;
3343;SDS011;1685;53.104;8.228;2022-09-29T07:48:35;50.07;;;29.23;;
3343;SDS011;1685;53.104;8.228;2022-09-29T07:51:03;47.97;;;27.47;;
3343;SDS011;1685;53.104;8.228;2022-09-29T07:53:31;47.93;;;28.10;;
3343;SDS011;1685;53.104;8.228;2022-09-29T07:56:02;59.03;;;32.40;;
3343;SDS011;1685;53.104;8.228;2022-09-29T07:58:30;56.37;;;31.47;;
3343;SDS011;1685;53.104;8.228;2022-09-29T08:00:57;49.40;;;29.40;;
3343;SDS011;1685;53.104;8.228;2022-09-29T08:03:24;63.17;;;30.50;;
3343;SDS011;1685;53.104;8.228;2022-09-29T08:05:51;51.00;;;27.53;;
3343;SDS011;1685;53.104;8.228;2022-09-29T08:08:18;56.87;;;32.40;;
3343;SDS011;1685;53.104;8.228;2022-09-29T08:10:44;55.60;;;32.37;;
3343;SDS011;1685;53.104;8.228;2022-09-29T08:13:12;58.13;;;33.60;;
3343;SDS011;1685;53.104;8.228;2022-09-29T08:15:39;55.97;;;32.40;;
3343;SDS011;1685;53.104;8.228;2022-09-29T08:18:06;63.60;;;33.30;;
3343;SDS011;1685;53.104;8.228;2022-09-29T08:20:34;57.20;;;30.00;;
3343;SDS011;1685;53.104;8.228;2022-09-29T08:23:00;54.60;;;31.93;;
3343;SDS011;1685;53.104;8.228;2022-09-29T08:25:27;53.83;;;30.40;;
3343;SDS011;1685;53.104;8.228;2022-09-29T08:27:54;50.50;;;29.87;;
3343;SDS011;1685;53.104;8.228;2022-09-29T08:30:22;53.53;;;29.50;;
3343;SDS011;1685;53.104;8.228;2022-09-29T08:32:52;44.50;;;27.77;;
3343;SDS011;1685;53.104;8.228;2022-09-29T08:35:19;46.87;;;27.20;;
3343;SDS011;1685;53.104;8.228;2022-09-29T08:37:46;60.67;;;32.03;;
3343;SDS011;1685;53.104;8.228;2022-09-29T08:40:13;56.50;;;30.47;;
3343;SDS011;1685;53.104;8.228;2022-09-29T08:42:42;51.93;;;31.37;;
3343;SDS011;1685;53.104;8.228;2022-09-29T08:45:17;48.17;;;29.13;;
3343;SDS011;1685;53.104;8.228;2022-09-29T08:47:51;46.60;;;28.60;;
3343;SDS011;1685;53.104;8.228;2022-09-29T08:50:25;47.93;;;28.70;;
3343;SDS011;1685;53.104;8.228;2022-09-29T08:52:56;45.70;;;28.00;;
3343;SDS011;1685;53.104;8.228;2022-09-29T08:55:27;45.10;;;26.90;;
3343;SDS011;1685;53.104;8.228;2022-09-29T08:58:00;43.13;;;26.03;;
3343;SDS011;1685;53.104;8.228;2022-09-29T09:00:29;41.77;;;27.00;;
3343;SDS011;1685;53.104;8.228;2022-09-29T09:03:19;42.10;;;26.73;;
3343;SDS011;1685;53.104;8.228;2022-09-29T09:06:25;46.07;;;26.30;;
3343;SDS011;1685;53.104;8.228;2022-09-29T09:12:01;46.20;;;28.13;;
3343;SDS011;1685;53.104;8.228;2022-09-29T09:14:41;47.63;;;28.30;;
3343;SDS011;1685;53.104;8.228;2022-09-29T09:17:30;46.63;;;27.53;;
3343;SDS011;1685;53.104;8.228;2022-09-29T09:20:19;40.00;;;25.73;;
3343;SDS011;1685;53.104;8.228;2022-09-29T09:22:57;41.33;;;25.73;;
3343;SDS011;1685;53.104;8.228;2022-09-29T09:25:28;43.10;;;27.33;;
3343;SDS011;1685;53.104;8.228;2022-09-29T09:28:02;49.60;;;27.57;;
3343;SDS011;1685;53.104;8.228;2022-09-29T09:30:34;44.23;;;27.67;;
3343;SDS011;1685;53.104;8.228;2022-09-29T09:33:09;46.10;;;29.00;;
3343;SDS011;1685;53.104;8.228;2022-09-29T09:35:44;44.17;;;27.17;;
3343;SDS011;1685;53.104;8.228;2022-09-29T09:38:16;36.97;;;25.83;;
3343;SDS011;1685;53.104;8.228;2022-09-29T09:40:48;41.70;;;26.20;;
3343;SDS011;1685;53.104;8.228;2022-09-29T09:43:19;39.43;;;25.23;;
3343;SDS011;1685;53.104;8.228;2022-09-29T09:45:50;42.27;;;26.17;;
3343;SDS011;1685;53.104;8.228;2022-09-29T09:48:25;37.93;;;25.40;;
3343;SDS011;1685;53.104;8.228;2022-09-29T09:50:58;37.77;;;24.13;;
3343;SDS011;1685;53.104;8.228;2022-09-29T09:53:28;29.57;;;20.83;;
3343;SDS011;1685;53.104;8.228;2022-09-29T09:56:02;28.20;;;20.87;;
3343;SDS011;1685;53.104;8.228;2022-09-29T09:58:42;25.50;;;18.97;;
3343;SDS011;1685;53.104;8.228;2022-09-29T10:01:29;27.80;;;18.73;;
3343;SDS011;1685;53.104;8.228;2022-09-29T10:03:56;23.90;;;17.50;;
3343;SDS011;1685;53.104;8.228;2022-09-29T10:06:26;22.97;;;16.30;;
3343;SDS011;1685;53.104;8.228;2022-09-29T10:08:53;19.03;;;15.83;;
3343;SDS011;1685;53.104;8.228;2022-09-29T10:11:21;20.97;;;16.03;;
3343;SDS011;1685;53.104;8.228;2022-09-29T10:13:53;19.83;;;14.60;;
3343;SDS011;1685;53.104;8.228;2022-09-29T10:16:25;18.30;;;14.70;;
3343;SDS011;1685;53.104;8.228;2022-09-29T10:18:55;15.27;;;12.63;;
3343;SDS011;1685;53.104;8.228;2022-09-29T10:21:34;17.20;;;14.20;;
3343;SDS011;1685;53.104;8.228;2022-09-29T10:24:03;16.23;;;13.63;;
3343;SDS011;1685;53.104;8.228;2022-09-29T10:26:32;21.53;;;14.47;;
3343;SDS011;1685;53.104;8.228;2022-09-29T10:29:15;15.87;;;12.50;;
3343;SDS011;1685;53.104;8.228;2022-09-29T10:31:56;18.60;;;13.60;;
3343;SDS011;1685;53.104;8.228;2022-09-29T10:34:25;16.47;;;13.10;;
3343;SDS011;1685;53.104;8.228;2022-09-29T10:36:55;18.40;;;12.57;;
3343;SDS011;1685;53.104;8.228;2022-09-29T10:39:30;15.93;;;12.60;;
3343;SDS011;1685;53.104;8.228;2022-09-29T10:42:14;14.27;;;11.50;;
3343;SDS011;1685;53.104;8.228;2022-09-29T10:44:43;14.67;;;11.60;;
3343;SDS011;1685;53.104;8.228;2022-09-29T10:47:16;15.90;;;10.93;;
3343;SDS011;1685;53.104;8.228;2022-09-29T10:49:44;18.03;;;10.77;;
3343;SDS011;1685;53.104;8.228;2022-09-29T10:52:22;11.73;;;10.17;;
3343;SDS011;1685;53.104;8.228;2022-09-29T10:54:52;13.77;;;10.00;;
3343;SDS011;1685;53.104;8.228;2022-09-29T10:57:22;9.83;;;8.83;;
3343;SDS011;1685;53.104;8.228;2022-09-29T10:59:51;12.60;;;8.70;;
3343;SDS011;1685;53.104;8.228;2022-09-29T11:02:24;13.17;;;9.00;;
3343;SDS011;1685;53.104;8.228;2022-09-29T11:04:56;11.57;;;10.13;;
3343;SDS011;1685;53.104;8.228;2022-09-29T11:07:25;10.63;;;8.97;;
3343;SDS011;1685;53.104;8.228;2022-09-29T11:09:53;11.20;;;9.57;;
3343;SDS011;1685;53.104;8.228;2022-09-29T11:12:28;11.60;;;8.87;;
3343;SDS011;1685;53.104;8.228;2022-09-29T11:14:59;10.10;;;8.23;;
3343;SDS011;1685;53.104;8.228;2022-09-29T11:17:26;13.63;;;9.70;;
3343;SDS011;1685;53.104;8.228;2022-09-29T11:19:56;8.20;;;7.40;;
3343;SDS011;1685;53.104;8.228;2022-09-29T11:25:25;9.00;;;6.80;;
3343;SDS011;1685;53.104;8.228;2022-09-29T11:28:09;8.60;;;7.43;;
3343;SDS011;1685;53.104;8.228;2022-09-29T11:30:49;8.47;;;6.10;;
3343;SDS011;1685;53.104;8.228;2022-09-29T11:33:28;8.40;;;7.50;;
3343;SDS011;1685;53.104;8.228;2022-09-29T11:36:04;11.73;;;8.13;;
3343;SDS011;1685;53.104;8.228;2022-09-29T11:38:45;13.10;;;10.40;;
3343;SDS011;1685;53.104;8.228;2022-09-29T11:41:30;9.47;;;8.50;;
3343;SDS011;1685;53.104;8.228;2022-09-29T11:44:09;10.43;;;9.00;;
3343;SDS011;1685;53.104;8.228;2022-09-29T11:46:50;10.07;;;9.00;;
3343;SDS011;1685;53.104;8.228;2022-09-29T11:49:37;11.73;;;8.43;;
3343;SDS011;1685;53.104;8.228;2022-09-29T11:52:21;10.90;;;7.10;;
3343;SDS011;1685;53.104;8.228;2022-09-29T11:55:09;8.60;;;5.83;;
3343;SDS011;1685;53.104;8.228;2022-09-29T11:58:01;8.50;;;7.07;;
3343;SDS011;1685;53.104;8.228;2022-09-29T12:00:46;9.83;;;6.53;;
3343;SDS011;1685;53.104;8.228;2022-09-29T12:03:28;6.63;;;5.97;;
3343;SDS011;1685;53.104;8.228;2022-09-29T12:09:22;8.17;;;6.70;;
3343;SDS011;1685;53.104;8.228;2022-09-29T12:12:08;9.87;;;8.23;;
3343;SDS011;1685;53.104;8.228;2022-09-29T12:14:47;14.10;;;8.17;;
3343;SDS011;1685;53.104;8.228;2022-09-29T12:17:26;8.63;;;7.73;;
3343;SDS011;1685;53.104;8.228;2022-09-29T12:19:57;8.70;;;7.20;;
3343;SDS011;1685;53.104;8.228;2022-09-29T12:22:27;7.67;;;6.23;;
3343;SDS011;1685;53.104;8.228;2022-09-29T12:24:55;9.50;;;6.50;;
3343;SDS011;1685;53.104;8.228;2022-09-29T12:27:26;7.33;;;6.63;;
3343;SDS011;1685;53.104;8.228;2022-09-29T12:29:56;7.77;;;6.87;;
3343;SDS011;1685;53.104;8.228;2022-09-29T12:32:28;8.63;;;7.70;;
3343;SDS011;1685;53.104;8.228;2022-09-29T12:35:01;9.10;;;6.67;;
3343;SDS011;1685;53.104;8.228;2022-09-29T12:37:35;6.87;;;6.13;;
3343;SDS011;1685;53.104;8.228;2022-09-29T12:40:09;7.90;;;7.10;;
3343;SDS011;1685;53.104;8.228;2022-09-29T12:42:54;8.10;;;7.30;;
3343;SDS011;1685;53.104;8.228;2022-09-29T12:45:40;8.60;;;7.50;;
3343;SDS011;1685;53.104;8.228;2022-09-29T12:48:22;6.83;;;6.13;;
3343;SDS011;1685;53.104;8.228;2022-09-29T12:51:01;6.43;;;5.83;;
3343;SDS011;1685;53.104;8.228;2022-09-29T12:53:34;4.70;;;4.30;;
3343;SDS011;1685;53.104;8.228;2022-09-29T12:56:04;7.80;;;4.20;;
3343;SDS011;1685;53.104;8.228;2022-09-29T12:58:40;4.87;;;4.37;;
3343;SDS011;1685;53.104;8.228;2022-09-29T13:01:16;4.50;;;4.10;;
3343;SDS011;1685;53.104;8.228;2022-09-29T13:06:53;4.23;;;3.70;;
3343;SDS011;1685;53.104;8.228;2022-09-29T13:13:00;2.10;;;1.60;;
3343;SDS011;1685;53.104;8.228;2022-09-29T13:15:46;1.70;;;1.57;;
3343;SDS011;1685;53.104;8.228;2022-09-29T13:18:34;2.93;;;1.63;;
3343;SDS011;1685;53.104;8.228;2022-09-29T13:21:15;2.30;;;1.40;;
3343;SDS011;1685;53.104;8.228;2022-09-29T13:23:53;3.87;;;2.13;;
3343;SDS011;1685;53.104;8.228;2022-09-29T13:26:48;2.67;;;1.77;;
3343;SDS011;1685;53.104;8.228;2022-09-29T13:29:32;8.60;;;2.53;;
3343;SDS011;1685;53.104;8.228;2022-09-29T13:32:08;2.57;;;2.10;;
3343;SDS011;1685;53.104;8.228;2022-09-29T13:34:36;2.00;;;1.90;;
3343;SDS011;1685;53.104;8.228;2022-09-29T13:37:04;2.47;;;2.27;;
3343;SDS011;1685;53.104;8.228;2022-09-29T13:39:34;2.93;;;2.57;;
3343;SDS011;1685;53.104;8.228;2022-09-29T14:02:46;5.97;;;5.37;;
3343;SDS011;1685;53.104;8.228;2022-09-29T14:08:36;3.20;;;2.90;;
3343;SDS011;1685;53.104;8.228;2022-09-29T14:11:07;5.60;;;3.80;;
3343;SDS011;1685;53.104;8.228;2022-09-29T14:13:44;7.00;;;5.30;;
3343;SDS011;1685;53.104;8.228;2022-09-29T14:16:17;4.10;;;3.60;;
3343;SDS011;1685;53.104;8.228;2022-09-29T14:18:55;3.60;;;3.30;;
3343;SDS011;1685;53.104;8.228;2022-09-29T14:21:45;2.90;;;2.70;;
3343;SDS011;1685;53.104;8.228;2022-09-29T14:30:13;3.17;;;2.87;;
3343;SDS011;1685;53.104;8.228;2022-09-29T14:32:44;4.17;;;3.00;;
3343;SDS011;1685;53.104;8.228;2022-09-29T14:35:19;4.00;;;3.70;;
3343;SDS011;1685;53.104;8.228;2022-09-29T14:37:56;3.80;;;3.50;;
3343;SDS011;1685;53.104;8.228;2022-09-29T14:40:25;4.30;;;3.77;;
3343;SDS011;1685;53.104;8.228;2022-09-29T14:43:07;3.27;;;2.97;;
3343;SDS011;1685;53.104;8.228;2022-09-29T14:45:39;5.13;;;2.73;;
3343;SDS011;1685;53.104;8.228;2022-09-29T14:48:33;6.47;;;4.20;;
3343;SDS011;1685;53.104;8.228;2022-09-29T14:51:25;3.33;;;3.13;;
3343;SDS011;1685;53.104;8.228;2022-09-29T14:54:18;2.77;;;2.57;;
3343;SDS011;1685;53.104;8.228;2022-09-29T14:56:56;5.10;;;2.57;;
3343;SDS011;1685;53.104;8.228;2022-09-29T14:59:34;2.60;;;2.40;;
3343;SDS011;1685;53.104;8.228;2022-09-29T15:02:17;2.50;;;1.80;;
3343;SDS011;1685;53.104;8.228;2022-09-29T15:04:47;4.50;;;2.03;;
3343;SDS011;1685;53.104;8.228;2022-09-29T15:07:15;2.10;;;2.00;;
3343;SDS011;1685;53.104;8.228;2022-09-29T15:09:47;1.90;;;1.80;;
3343;SDS011;1685;53.104;8.228;2022-09-29T15:12:19;1.80;;;1.67;;
3343;SDS011;1685;53.104;8.228;2022-09-29T15:14:46;1.80;;;1.70;;
3343;SDS011;1685;53.104;8.228;2022-09-29T15:17:16;2.27;;;2.17;;
3343;SDS011;1685;53.104;8.228;2022-09-29T15:19:50;1.87;;;1.77;;
3343;SDS011;1685;53.104;8.228;2022-09-29T15:22:29;2.00;;;1.90;;
3343;SDS011;1685;53.104;8.228;2022-09-29T15:25:19;3.33;;;2.17;;
3343;SDS011;1685;53.104;8.228;2022-09-29T15:27:53;2.60;;;2.00;;
3343;SDS011;1685;53.104;8.228;2022-09-29T15:30:23;2.50;;;2.30;;
3343;SDS011;1685;53.104;8.228;2022-09-29T15:32:52;9.17;;;7.60;;
3343;SDS011;1685;53.104;8.228;2022-09-29T15:35:20;5.80;;;5.30;;
3343;SDS011;1685;53.104;8.228;2022-09-29T15:38:13;5.50;;;5.10;;
3343;SDS011;1685;53.104;8.228;2022-09-29T15:40:43;8.73;;;7.83;;
3343;SDS011;1685;53.104;8.228;2022-09-29T15:43:18;8.10;;;6.60;;
3343;SDS011;1685;53.104;8.228;2022-09-29T15:45:51;23.50;;;17.97;;
3343;SDS011;1685;53.104;8.228;2022-09-29T15:48:20;5.63;;;5.03;;
3343;SDS011;1685;53.104;8.228;2022-09-29T15:50:47;4.17;;;3.87;;
3343;SDS011;1685;53.104;8.228;2022-09-29T15:53:15;3.03;;;2.83;;
3343;SDS011;1685;53.104;8.228;2022-09-29T15:55:44;2.57;;;2.47;;
3343;SDS011;1685;53.104;8.228;2022-09-29T16:01:07;3.97;;;3.00;;
3343;SDS011;1685;53.104;8.228;2022-09-29T16:03:38;3.07;;;2.83;;
3343;SDS011;1685;53.104;8.228;2022-09-29T16:06:16;3.10;;;2.30;;
3343;SDS011;1685;53.104;8.228;2022-09-29T16:08:48;2.53;;;2.33;;
3343;SDS011;1685;53.104;8.228;2022-09-29T16:11:20;2.60;;;2.50;;
3343;SDS011;1685;53.104;8.228;2022-09-29T16:13:51;4.00;;;3.47;;